Gaylord, MI (49734)

5:00 AM EDT on July 28, 2016 (GMT -0400)
Alpine Center | | Change Station

Elev 1385 ft 45.04 °N, 84.67 °W | Updated 1 minute ago

Overcast
Overcast
61.3 °F
Feels Like 61.3 °F
N
4.7
Wind Variable Wind from NW

Today
High -- | Low -- °F
--% Chance of Precip.
Yesterday
High -- | Low -- °F
Precip. -- in
Pressure 29.99 in
Visibility 10.0 miles
Clouds Few 4000 ft
Overcast 4900 ft
Dew Point 55 °F
Humidity 79%
Rainfall 0.00 in
Snow Depth Not available.
6:20 AM 9:09 PM
Waning Crescent, 34% visible
METAR KGLR 280853Z AUTO VRB03KT 10SM FEW040 OVC049 18/13 A3001 RMK AO2 RAE26 SLP156 P0000 60000 T01780128 53003
Pressure 29.99 in
Visibility 10.0 miles
Clouds Few 4000 ft
Overcast 4900 ft
Dew Point 55 °F
Humidity 79%
Rainfall 0.00 in
Snow Depth Not available.
6:20 AM 9:09 PM
Waning Crescent, 34% visible
METAR KGLR 280853Z AUTO VRB03KT 10SM FEW040 OVC049 18/13 A3001 RMK AO2 RAE26 SLP156 P0000 60000 T01780128 53003

10-Day Weather Forecast

Almanac

Astronomy

Jul. 28, 2016 Rise Set
Actual Time
Civil Twilight
Nautical Twilight
Astronomical Twilight
Moon
Length of Visible Light
Length of Day
Tomorrow will be .
, % of the Moon is Illuminated

Today's Extremes

State Highs State Lows

Community

WunderPhotos

Upload Photos

1,928,070 photos uploaded!

WunderBlog® & News

Nearby

Air Quality

  Air Quality AQ Index Pollutant
Not available.

Snow Depth

Station Depth Elevation

Earthquake Activity

City Distance Mag. Time & Date
Minimum magnitude displayed is 2.5.

Coastal Water Temperatures

Place Temperature

Stations

Nearby Weather Stations

Station Location Temp. Windchill Dew Point Humidity Wind Precip. Elev Updated Type
                   

Watches & Warnings

There are currently no watches in effect.